Time;durP1;ratioP1;P1;durP2;ratioP2;P2;SDS_P1;SDS_P2;PMS_P1;PMS_P2;Temp;Humidity;BMP_temperature;BMP_pressure;BME280_temperature;BME280_humidity;BME280_pressure;Samples;Min_cycle;Max_cycle;Signal;HPM_P1;HPM_P2
2023/05/22 00:00:13;;;;;;;27.60;22.13;;;;;;;;;;5081166;28;20482;-57
2023/05/22 00:02:41;;;;;;;28.87;23.10;;;;;;;;;;5082079;28;20539;-57
2023/05/22 00:05:10;;;;;;;26.87;23.37;;;;;;;;;;5080476;28;20470;-57
2023/05/22 00:07:36;;;;;;;29.90;25.60;;;;;;;;;;5088239;28;20442;-57
2023/05/22 00:10:03;;;;;;;27.30;23.43;;;;;;;;;;5084006;28;20466;-57
2023/05/22 00:12:29;;;;;;;27.13;24.33;;;;;;;;;;5081074;28;20476;-57
2023/05/22 00:14:56;;;;;;;28.63;24.23;;;;;;;;;;5083899;28;20490;-58
2023/05/22 00:17:23;;;;;;;28.40;25.37;;;;;;;;;;5091985;28;20620;-57
2023/05/22 00:19:50;;;;;;;28.73;25.87;;;;;;;;;;5081328;28;20452;-57
2023/05/22 00:22:18;;;;;;;28.00;25.20;;;;;;;;;;5081298;28;20506;-57
2023/05/22 00:24:44;;;;;;;29.43;26.43;;;;;;;;;;5081966;28;20491;-57
2023/05/22 00:27:11;;;;;;;30.60;26.37;;;;;;;;;;5064910;28;20491;-57
2023/05/22 00:29:37;;;;;;;27.60;24.70;;;;;;;;;;5063063;28;20560;-58
2023/05/22 00:32:04;;;;;;;29.80;26.63;;;;;;;;;;5061007;28;20504;-58
2023/05/22 00:34:30;;;;;;;27.27;24.57;;;;;;;;;;5060979;28;20957;-57
2023/05/22 00:36:56;;;;;;;30.80;26.87;;;;;;;;;;5075469;28;20503;-58
2023/05/22 00:39:24;;;;;;;29.37;26.27;;;;;;;;;;5090121;28;20475;-57
2023/05/22 00:41:51;;;;;;;30.30;26.97;;;;;;;;;;5075178;28;20495;-56
2023/05/22 00:44:17;;;;;;;31.60;28.30;;;;;;;;;;5079377;28;20480;-57
2023/05/22 00:46:43;;;;;;;31.73;27.93;;;;;;;;;;5074857;28;20518;-56
2023/05/22 00:49:10;;;;;;;29.77;26.53;;;;;;;;;;5080675;28;20460;-56
2023/05/22 00:51:36;;;;;;;30.40;27.40;;;;;;;;;;5083933;28;20480;-56
2023/05/22 00:54:03;;;;;;;32.83;28.80;;;;;;;;;;5079367;28;20487;-56
2023/05/22 00:56:31;;;;;;;31.73;28.43;;;;;;;;;;5071416;28;20504;-56
2023/05/22 00:58:58;;;;;;;32.57;29.13;;;;;;;;;;5079210;28;20480;-57
2023/05/22 01:01:32;;;;;;;34.30;30.70;;;;;;;;;;5078879;28;20527;-56
2023/05/22 01:03:58;;;;;;;34.83;30.10;;;;;;;;;;5079042;28;20531;-56
2023/05/22 01:06:25;;;;;;;35.90;32.10;;;;;;;;;;5081290;28;21388;-57
2023/05/22 01:08:51;;;;;;;34.40;31.00;;;;;;;;;;5079534;28;21023;-57
2023/05/22 01:11:21;;;;;;;34.20;30.50;;;;;;;;;;5077071;28;20471;-57
2023/05/22 01:13:55;;;;;;;34.43;30.70;;;;;;;;;;5081448;28;20459;-56
2023/05/22 01:16:32;;;;;;;35.23;31.50;;;;;;;;;;5081520;28;20574;-57
2023/05/22 01:19:02;;;;;;;30.80;27.60;;;;;;;;;;5083193;28;20493;-56
2023/05/22 01:21:34;;;;;;;34.07;28.90;;;;;;;;;;5083873;28;21085;-57
2023/05/22 01:24:20;;;;;;;36.17;32.40;;;;;;;;;;5080689;28;20472;-57
2023/05/22 01:26:52;;;;;;;33.90;29.90;;;;;;;;;;5080786;28;20491;-57
2023/05/22 01:29:39;;;;;;;35.40;30.57;;;;;;;;;;5079283;28;20464;-57
2023/05/22 01:32:08;;;;;;;33.80;30.17;;;;;;;;;;5081476;28;20566;-57
2023/05/22 01:34:37;;;;;;;34.07;30.13;;;;;;;;;;5082403;28;20506;-57
2023/05/22 01:37:03;;;;;;;33.60;30.23;;;;;;;;;;5081886;28;20482;-57
2023/05/22 01:39:30;;;;;;;35.47;30.20;;;;;;;;;;5071644;28;20488;-58
2023/05/22 01:41:57;;;;;;;34.63;30.50;;;;;;;;;;5083522;28;20487;-58
2023/05/22 01:44:24;;;;;;;36.43;32.60;;;;;;;;;;5083687;28;20464;-57
2023/05/22 01:46:50;;;;;;;34.57;30.57;;;;;;;;;;5083926;28;20475;-58
2023/05/22 01:49:18;;;;;;;35.00;31.30;;;;;;;;;;5084478;28;20554;-57
2023/05/22 01:51:50;;;;;;;33.13;29.57;;;;;;;;;;5077282;28;21117;-57
2023/05/22 01:54:19;;;;;;;34.13;30.53;;;;;;;;;;5083166;28;20487;-57
2023/05/22 01:56:48;;;;;;;33.00;29.67;;;;;;;;;;5083702;28;20480;-57
2023/05/22 01:59:19;;;;;;;34.50;30.90;;;;;;;;;;5084376;28;20451;-57
2023/05/22 02:01:48;;;;;;;34.03;30.00;;;;;;;;;;5083855;28;20489;-57
2023/05/22 02:04:16;;;;;;;34.40;30.70;;;;;;;;;;5084079;28;20448;-57
2023/05/22 02:06:44;;;;;;;32.40;29.10;;;;;;;;;;5083447;28;20496;-57
2023/05/22 02:09:11;;;;;;;33.10;29.60;;;;;;;;;;5083649;28;20487;-57
2023/05/22 02:11:38;;;;;;;33.50;28.77;;;;;;;;;;5082513;28;20487;-57
2023/05/22 02:14:04;;;;;;;34.00;28.87;;;;;;;;;;5084021;28;20475;-58
2023/05/22 02:16:31;;;;;;;33.37;29.87;;;;;;;;;;5082641;28;20486;-56
2023/05/22 02:19:05;;;;;;;31.40;28.10;;;;;;;;;;5083648;28;20489;-57
2023/05/22 02:21:31;;;;;;;32.43;29.03;;;;;;;;;;5086492;28;20479;-57
2023/05/22 02:23:59;;;;;;;33.70;30.20;;;;;;;;;;5088945;28;20534;-57
2023/05/22 02:26:26;;;;;;;33.20;29.57;;;;;;;;;;5081682;28;20476;-57
2023/05/22 02:28:52;;;;;;;36.43;32.47;;;;;;;;;;5083259;28;20455;-57
2023/05/22 02:31:29;;;;;;;35.37;31.77;;;;;;;;;;5083115;28;20544;-57
2023/05/22 02:33:55;;;;;;;34.53;30.93;;;;;;;;;;5083492;28;20439;-57
2023/05/22 02:36:22;;;;;;;35.13;31.33;;;;;;;;;;5083227;28;20979;-57
2023/05/22 02:38:48;;;;;;;34.90;31.20;;;;;;;;;;5084017;28;20885;-57
2023/05/22 02:41:16;;;;;;;36.13;32.07;;;;;;;;;;5092089;28;20506;-56
2023/05/22 02:43:42;;;;;;;34.30;30.80;;;;;;;;;;5083706;28;20474;-57
2023/05/22 02:46:08;;;;;;;32.67;27.97;;;;;;;;;;5077895;28;20503;-57
2023/05/22 02:48:35;;;;;;;32.83;29.53;;;;;;;;;;5077194;28;20508;-57
2023/05/22 02:51:01;;;;;;;36.00;32.20;;;;;;;;;;5081737;28;20555;-57
2023/05/22 02:53:28;;;;;;;38.20;32.40;;;;;;;;;;5081534;28;20934;-55
2023/05/22 02:55:57;;;;;;;33.53;30.00;;;;;;;;;;5081170;28;20509;-56
2023/05/22 02:58:25;;;;;;;33.93;30.43;;;;;;;;;;5079299;28;20472;-56
2023/05/22 03:00:52;;;;;;;34.97;31.23;;;;;;;;;;5081954;28;20543;-56
2023/05/22 03:03:19;;;;;;;33.90;30.60;;;;;;;;;;5079159;28;20451;-56
2023/05/22 03:05:45;;;;;;;35.30;31.73;;;;;;;;;;5081912;28;20482;-57
2023/05/22 03:08:14;;;;;;;34.17;30.50;;;;;;;;;;5088503;28;20475;-56
2023/05/22 03:10:40;;;;;;;34.40;30.80;;;;;;;;;;5081663;28;20502;-56
2023/05/22 03:13:06;;;;;;;31.97;28.83;;;;;;;;;;5083124;28;20551;-57
2023/05/22 03:15:34;;;;;;;40.60;34.13;;;;;;;;;;5081853;28;20494;-56
2023/05/22 03:18:01;;;;;;;36.10;32.40;;;;;;;;;;5085930;28;20508;-57
2023/05/22 03:20:27;;;;;;;36.07;32.37;;;;;;;;;;5076738;28;20463;-56
2023/05/22 03:22:53;;;;;;;38.33;33.13;;;;;;;;;;5083008;28;20528;-56
2023/05/22 03:25:20;;;;;;;34.20;30.70;;;;;;;;;;5080930;28;20543;-56
2023/05/22 03:27:47;;;;;;;34.80;31.30;;;;;;;;;;5082426;28;20440;-56
2023/05/22 03:30:14;;;;;;;32.23;29.03;;;;;;;;;;5081648;28;20495;-57
2023/05/22 03:32:41;;;;;;;36.93;32.93;;;;;;;;;;5082547;28;20483;-57
2023/05/22 03:35:08;;;;;;;35.80;32.07;;;;;;;;;;5085149;28;20480;-57
2023/05/22 03:37:35;;;;;;;35.57;31.87;;;;;;;;;;5081840;28;21077;-56
2023/05/22 03:40:01;;;;;;;34.60;30.97;;;;;;;;;;5080990;28;20524;-56
2023/05/22 03:42:30;;;;;;;37.53;33.23;;;;;;;;;;5081685;28;20572;-56
2023/05/22 03:44:58;;;;;;;35.77;32.07;;;;;;;;;;5082120;28;20444;-56
2023/05/22 03:47:25;;;;;;;35.93;31.30;;;;;;;;;;5081283;28;20467;-56
2023/05/22 03:49:52;;;;;;;33.63;30.30;;;;;;;;;;5084026;28;21030;-56
2023/05/22 03:52:19;;;;;;;33.53;29.93;;;;;;;;;;5082680;28;20511;-57
2023/05/22 03:54:45;;;;;;;34.07;30.53;;;;;;;;;;5076041;28;21067;-57
2023/05/22 03:57:12;;;;;;;35.93;32.33;;;;;;;;;;5076876;28;20495;-56
2023/05/22 03:59:39;;;;;;;37.93;33.30;;;;;;;;;;5082209;28;20460;-57
2023/05/22 04:02:05;;;;;;;36.43;32.80;;;;;;;;;;5081351;28;20656;-57
2023/05/22 04:04:32;;;;;;;35.60;32.00;;;;;;;;;;5081514;28;20503;-57
2023/05/22 04:07:01;;;;;;;34.90;31.30;;;;;;;;;;5081221;28;20460;-57
2023/05/22 04:09:33;;;;;;;37.43;33.40;;;;;;;;;;5078279;28;20464;-57
2023/05/22 04:12:00;;;;;;;35.77;32.07;;;;;;;;;;5080391;28;20547;-57
2023/05/22 04:14:26;;;;;;;35.30;31.60;;;;;;;;;;5081457;28;20456;-57
2023/05/22 04:16:53;;;;;;;34.77;31.17;;;;;;;;;;5074711;28;20541;-57
2023/05/22 04:19:20;;;;;;;35.87;32.27;;;;;;;;;;5081402;28;21043;-57
2023/05/22 04:21:47;;;;;;;35.93;31.53;;;;;;;;;;5079104;28;20480;-57
2023/05/22 04:24:14;;;;;;;36.97;33.17;;;;;;;;;;5081567;28;20495;-58
2023/05/22 04:26:41;;;;;;;33.33;29.73;;;;;;;;;;5062436;28;20510;-59
2023/05/22 04:29:09;;;;;;;25.77;21.33;;;;;;;;;;5059918;28;20452;-59
2023/05/22 04:31:35;;;;;;;34.20;30.70;;;;;;;;;;5067138;28;20494;-59
2023/05/22 04:34:02;;;;;;;33.80;30.40;;;;;;;;;;5083537;28;20489;-59
2023/05/22 04:36:29;;;;;;;30.53;27.40;;;;;;;;;;5077282;28;21101;-60
2023/05/22 04:38:56;;;;;;;34.63;30.20;;;;;;;;;;5083861;28;20545;-59
2023/05/22 04:41:25;;;;;;;34.87;31.23;;;;;;;;;;5081034;28;20506;-59
2023/05/22 04:43:53;;;;;;;35.00;31.30;;;;;;;;;;5085522;28;20444;-59
2023/05/22 04:46:20;;;;;;;33.17;29.77;;;;;;;;;;5080683;28;20480;-59
2023/05/22 04:48:47;;;;;;;33.83;30.37;;;;;;;;;;5076689;28;20984;-59
2023/05/22 04:51:13;;;;;;;33.77;30.37;;;;;;;;;;5078062;28;20522;-59
2023/05/22 04:53:40;;;;;;;34.60;31.07;;;;;;;;;;5078851;28;20466;-59
2023/05/22 04:56:07;;;;;;;32.50;29.10;;;;;;;;;;5082823;28;20476;-59
2023/05/22 04:58:36;;;;;;;33.50;30.13;;;;;;;;;;5078936;28;20533;-58
2023/05/22 05:01:03;;;;;;;33.90;30.40;;;;;;;;;;5078746;28;20475;-58
2023/05/22 05:03:29;;;;;;;32.50;29.00;;;;;;;;;;5079969;28;20447;-60
2023/05/22 05:05:56;;;;;;;30.87;28.00;;;;;;;;;;5075180;28;20503;-60
2023/05/22 05:08:22;;;;;;;34.03;30.63;;;;;;;;;;5076577;28;20443;-59
2023/05/22 05:10:49;;;;;;;33.67;30.33;;;;;;;;;;5078131;28;20499;-60
2023/05/22 05:13:15;;;;;;;36.20;29.50;;;;;;;;;;5072833;28;20451;-59
2023/05/22 05:15:43;;;;;;;34.07;30.40;;;;;;;;;;5079224;28;20503;-59
2023/05/22 05:18:10;;;;;;;35.60;30.50;;;;;;;;;;5078970;28;20923;-60
2023/05/22 05:20:36;;;;;;;33.93;30.50;;;;;;;;;;5082256;28;20608;-59
2023/05/22 05:23:02;;;;;;;35.70;31.90;;;;;;;;;;5071236;28;20484;-60
2023/05/22 05:25:29;;;;;;;33.27;29.87;;;;;;;;;;5075116;28;20503;-60
2023/05/22 05:27:56;;;;;;;33.43;29.83;;;;;;;;;;5079824;28;20444;-61
2023/05/22 05:30:22;;;;;;;35.67;31.70;;;;;;;;;;5079883;28;20478;-60
2023/05/22 05:32:50;;;;;;;33.73;30.33;;;;;;;;;;5080807;28;21023;-60
2023/05/22 05:35:16;;;;;;;32.73;29.40;;;;;;;;;;5079626;28;20487;-60
2023/05/22 05:37:43;;;;;;;30.90;27.70;;;;;;;;;;5075952;28;20514;-61
2023/05/22 05:40:10;;;;;;;31.57;28.17;;;;;;;;;;5068984;28;20507;-60
2023/05/22 05:42:36;;;;;;;33.17;27.73;;;;;;;;;;5079668;28;20543;-60
2023/05/22 05:45:02;;;;;;;31.73;28.50;;;;;;;;;;5079249;28;20478;-59
2023/05/22 05:47:29;;;;;;;31.63;28.17;;;;;;;;;;5077559;28;21009;-59
2023/05/22 05:49:57;;;;;;;28.30;25.30;;;;;;;;;;5079311;28;20455;-60
2023/05/22 05:52:25;;;;;;;27.20;24.50;;;;;;;;;;5090654;28;20478;-59
2023/05/22 05:54:52;;;;;;;25.77;22.90;;;;;;;;;;5064254;28;20494;-59
2023/05/22 05:57:18;;;;;;;25.43;22.83;;;;;;;;;;5078818;28;20500;-60
2023/05/22 05:59:45;;;;;;;25.03;22.43;;;;;;;;;;5079619;28;20528;-60
2023/05/22 06:02:11;;;;;;;25.27;22.77;;;;;;;;;;5080133;28;20507;-59
2023/05/22 06:04:37;;;;;;;23.83;20.53;;;;;;;;;;5090497;28;20471;-60
2023/05/22 06:07:06;;;;;;;23.60;20.87;;;;;;;;;;5087456;28;20511;-59
2023/05/22 06:09:33;;;;;;;21.77;19.67;;;;;;;;;;5082708;28;20451;-59
2023/05/22 06:12:00;;;;;;;21.17;18.87;;;;;;;;;;5081945;28;20917;-59
2023/05/22 06:14:26;;;;;;;20.70;18.80;;;;;;;;;;5083325;28;20570;-59
2023/05/22 06:16:53;;;;;;;21.10;18.90;;;;;;;;;;5082138;28;20508;-59
2023/05/22 06:19:19;;;;;;;19.60;17.60;;;;;;;;;;5082219;28;20511;-59
2023/05/22 06:21:45;;;;;;;20.83;18.40;;;;;;;;;;5082617;28;20531;-60
2023/05/22 06:24:13;;;;;;;21.00;19.10;;;;;;;;;;5082222;28;20506;-59
2023/05/22 06:26:40;;;;;;;20.47;18.50;;;;;;;;;;5081760;28;20506;-61
2023/05/22 06:29:13;;;;;;;20.47;17.83;;;;;;;;;;5083129;28;20470;-61
2023/05/22 06:31:39;;;;;;;18.97;17.17;;;;;;;;;;5082001;28;20475;-60
2023/05/22 06:34:05;;;;;;;21.33;18.07;;;;;;;;;;5086788;28;20476;-60
2023/05/22 06:36:33;;;;;;;19.30;17.60;;;;;;;;;;5082670;28;20483;-61
2023/05/22 06:38:59;;;;;;;21.23;18.63;;;;;;;;;;5082164;28;20484;-60
2023/05/22 06:41:27;;;;;;;20.37;18.40;;;;;;;;;;5080707;28;20974;-61
2023/05/22 06:43:54;;;;;;;20.77;18.57;;;;;;;;;;5083439;28;20482;-60
2023/05/22 06:46:20;;;;;;;20.03;17.73;;;;;;;;;;5070907;28;20488;-61
2023/05/22 06:48:46;;;;;;;19.20;17.20;;;;;;;;;;5067017;28;20449;-60
2023/05/22 06:51:13;;;;;;;21.90;17.70;;;;;;;;;;5071237;28;21016;-60
2023/05/22 06:53:40;;;;;;;18.70;16.90;;;;;;;;;;5081256;28;20463;-61
2023/05/22 06:56:07;;;;;;;19.47;17.00;;;;;;;;;;5081152;28;20578;-60
2023/05/22 06:58:34;;;;;;;18.23;16.43;;;;;;;;;;5089296;28;20490;-61
2023/05/22 07:01:01;;;;;;;19.43;17.63;;;;;;;;;;5081079;28;20562;-61
2023/05/22 07:03:27;;;;;;;18.70;16.97;;;;;;;;;;5083939;28;20670;-61
2023/05/22 07:05:55;;;;;;;18.10;16.50;;;;;;;;;;5078772;28;20510;-61
2023/05/22 07:08:21;;;;;;;18.27;15.87;;;;;;;;;;5081087;28;20452;-61
2023/05/22 07:10:48;;;;;;;17.90;16.10;;;;;;;;;;5080353;28;20560;-61
2023/05/22 07:13:14;;;;;;;17.57;15.63;;;;;;;;;;5082649;28;20782;-61
2023/05/22 07:15:42;;;;;;;15.90;14.50;;;;;;;;;;5082413;28;20587;-61
2023/05/22 07:18:09;;;;;;;16.53;14.93;;;;;;;;;;5076011;28;20476;-61
2023/05/22 07:20:35;;;;;;;20.20;15.33;;;;;;;;;;5079123;28;20476;-61
2023/05/22 07:23:01;;;;;;;15.70;14.20;;;;;;;;;;5086392;28;20478;-62
2023/05/22 07:25:28;;;;;;;17.17;15.37;;;;;;;;;;5080163;28;20472;-61
2023/05/22 07:27:57;;;;;;;15.93;14.43;;;;;;;;;;5081144;28;20460;-61
2023/05/22 07:30:23;;;;;;;17.47;14.90;;;;;;;;;;5079778;28;20480;-61
2023/05/22 07:32:51;;;;;;;15.60;14.20;;;;;;;;;;5081572;28;20452;-61
2023/05/22 07:35:17;;;;;;;16.73;15.07;;;;;;;;;;5080349;28;20504;-61
2023/05/22 07:37:44;;;;;;;18.73;15.40;;;;;;;;;;5087589;28;20515;-61
2023/05/22 07:40:11;;;;;;;16.03;14.43;;;;;;;;;;5080276;28;20459;-61
2023/05/22 07:42:38;;;;;;;17.47;15.67;;;;;;;;;;5080747;28;20459;-61
2023/05/22 07:45:05;;;;;;;19.80;16.10;;;;;;;;;;5080600;28;20440;-62
2023/05/22 07:47:31;;;;;;;17.70;15.30;;;;;;;;;;5080524;28;20484;-61
2023/05/22 07:49:59;;;;;;;17.83;16.03;;;;;;;;;;5081175;28;20475;-61
2023/05/22 07:52:25;;;;;;;15.57;13.93;;;;;;;;;;5084195;28;21020;-62
2023/05/22 07:54:51;;;;;;;14.57;13.27;;;;;;;;;;5079808;28;20515;-61
2023/05/22 07:57:18;;;;;;;15.83;14.33;;;;;;;;;;5079750;28;20491;-61
2023/05/22 07:59:44;;;;;;;17.03;15.33;;;;;;;;;;5079593;28;20730;-61
2023/05/22 08:02:11;;;;;;;18.70;14.50;;;;;;;;;;5080413;28;20480;-62
2023/05/22 08:04:37;;;;;;;15.10;13.50;;;;;;;;;;5076710;28;20452;-61
2023/05/22 08:07:05;;;;;;;15.33;13.83;;;;;;;;;;5084743;28;20558;-61
2023/05/22 08:09:31;;;;;;;16.13;14.53;;;;;;;;;;5084047;28;20451;-61
2023/05/22 08:11:58;;;;;;;18.50;16.70;;;;;;;;;;5079317;28;20484;-62
2023/05/22 08:14:24;;;;;;;17.60;15.53;;;;;;;;;;5079933;28;20452;-61
2023/05/22 08:16:51;;;;;;;15.50;14.00;;;;;;;;;;5079597;28;20510;-61
2023/05/22 08:19:17;;;;;;;16.67;15.07;;;;;;;;;;5080471;28;20545;-61
2023/05/22 08:21:44;;;;;;;15.10;13.50;;;;;;;;;;5080843;28;20530;-62
2023/05/22 08:24:11;;;;;;;14.93;12.80;;;;;;;;;;5079789;28;20460;-61
2023/05/22 08:26:39;;;;;;;15.47;14.10;;;;;;;;;;5079015;28;20495;-62
2023/05/22 08:29:05;;;;;;;15.73;14.30;;;;;;;;;;5080138;28;20852;-62
2023/05/22 08:31:33;;;;;;;15.07;13.63;;;;;;;;;;5079513;28;20506;-62
2023/05/22 08:34:01;;;;;;;15.53;13.77;;;;;;;;;;5080222;28;20498;-61
2023/05/22 08:36:27;;;;;;;14.83;13.53;;;;;;;;;;5081737;28;20482;-61
2023/05/22 08:38:54;;;;;;;15.43;13.83;;;;;;;;;;5080447;28;20522;-62
2023/05/22 08:41:21;;;;;;;15.77;14.30;;;;;;;;;;5078512;28;20494;-62
2023/05/22 08:43:48;;;;;;;14.97;13.40;;;;;;;;;;5079500;28;20455;-61
2023/05/22 08:46:16;;;;;;;15.27;13.90;;;;;;;;;;5081768;28;20878;-61
2023/05/22 08:48:43;;;;;;;15.10;13.70;;;;;;;;;;5085575;28;20827;-62
2023/05/22 08:51:13;;;;;;;14.80;13.40;;;;;;;;;;5084460;28;20479;-61
2023/05/22 08:53:40;;;;;;;16.07;14.53;;;;;;;;;;5084164;28;20460;-61
2023/05/22 08:56:07;;;;;;;15.47;14.17;;;;;;;;;;5068221;28;20480;-62
2023/05/22 08:58:35;;;;;;;16.07;14.50;;;;;;;;;;5079899;28;20536;-62
2023/05/22 09:01:02;;;;;;;14.73;13.17;;;;;;;;;;5079681;28;20455;-62
2023/05/22 09:03:31;;;;;;;15.53;14.00;;;;;;;;;;5079904;28;20497;-61
2023/05/22 09:05:58;;;;;;;15.93;14.57;;;;;;;;;;5079174;28;20447;-61
2023/05/22 09:08:24;;;;;;;14.63;13.13;;;;;;;;;;5080290;28;20876;-61
2023/05/22 09:10:51;;;;;;;16.50;12.60;;;;;;;;;;5079171;28;20483;-62
2023/05/22 09:13:24;;;;;;;16.17;14.50;;;;;;;;;;5079529;28;20444;-61
2023/05/22 09:15:52;;;;;;;15.10;13.80;;;;;;;;;;5078549;28;20452;-62
2023/05/22 09:18:19;;;;;;;14.07;12.70;;;;;;;;;;5080103;28;20479;-61
2023/05/22 09:20:45;;;;;;;13.23;11.87;;;;;;;;;;5082361;28;20456;-62
2023/05/22 09:23:14;;;;;;;14.77;13.40;;;;;;;;;;5080235;28;20515;-61
2023/05/22 09:25:41;;;;;;;13.23;11.93;;;;;;;;;;5076053;28;20479;-62
2023/05/22 09:28:08;;;;;;;15.73;14.10;;;;;;;;;;5079842;28;20458;-62
2023/05/22 09:30:34;;;;;;;16.27;14.77;;;;;;;;;;5079132;28;20503;-61
2023/05/22 09:33:03;;;;;;;16.33;14.60;;;;;;;;;;5079696;28;20667;-62
2023/05/22 09:35:31;;;;;;;13.50;11.80;;;;;;;;;;5080834;28;20472;-62
2023/05/22 09:37:58;;;;;;;15.43;13.93;;;;;;;;;;5082314;28;20963;-62
2023/05/22 09:40:26;;;;;;;14.60;13.30;;;;;;;;;;5081709;28;20988;-62
2023/05/22 09:42:53;;;;;;;13.43;12.13;;;;;;;;;;5082863;28;20455;-62
2023/05/22 09:45:21;;;;;;;13.53;12.23;;;;;;;;;;5082469;28;20483;-62
2023/05/22 09:47:48;;;;;;;15.87;12.73;;;;;;;;;;5083970;28;20444;-62
2023/05/22 09:50:17;;;;;;;14.27;12.90;;;;;;;;;;5081728;28;20447;-62
2023/05/22 09:52:54;;;;;;;15.97;14.37;;;;;;;;;;5084309;28;20837;-62
2023/05/22 09:55:22;;;;;;;14.47;13.03;;;;;;;;;;5081463;28;20600;-62
2023/05/22 09:57:51;;;;;;;14.07;12.87;;;;;;;;;;5082407;28;20450;-63
2023/05/22 10:00:18;;;;;;;17.93;13.60;;;;;;;;;;5081585;28;20743;-62
2023/05/22 10:02:46;;;;;;;19.83;12.80;;;;;;;;;;5082796;28;20452;-63
2023/05/22 10:05:14;;;;;;;12.97;11.60;;;;;;;;;;5081685;28;20463;-63
2023/05/22 10:07:45;;;;;;;13.30;12.10;;;;;;;;;;5082605;28;20828;-63
2023/05/22 10:10:12;;;;;;;12.97;11.77;;;;;;;;;;5074802;28;20448;-63
2023/05/22 10:12:41;;;;;;;13.90;12.53;;;;;;;;;;5080724;28;20463;-62
2023/05/22 10:15:09;;;;;;;13.87;12.67;;;;;;;;;;5085894;28;20478;-62
2023/05/22 10:17:46;;;;;;;13.87;12.57;;;;;;;;;;5082638;28;20452;-63
2023/05/22 10:20:13;;;;;;;15.23;13.83;;;;;;;;;;5089975;28;21057;-63
2023/05/22 10:22:39;;;;;;;14.03;12.73;;;;;;;;;;5085644;28;20491;-63
2023/05/22 10:25:08;;;;;;;14.73;12.93;;;;;;;;;;5082400;28;20471;-63
2023/05/22 10:27:34;;;;;;;14.77;13.37;;;;;;;;;;5081266;28;20513;-63
2023/05/22 10:30:05;;;;;;;14.30;12.87;;;;;;;;;;5082238;28;20458;-63
2023/05/22 10:32:35;;;;;;;13.40;12.10;;;;;;;;;;5081599;28;20471;-64
2023/05/22 10:35:06;;;;;;;12.97;11.77;;;;;;;;;;5084869;28;20487;-64
2023/05/22 10:37:47;;;;;;;14.03;12.60;;;;;;;;;;5081482;28;20528;-63
2023/05/22 10:40:18;;;;;;;13.73;12.27;;;;;;;;;;5077580;28;20493;-63
2023/05/22 10:42:45;;;;;;;15.67;14.20;;;;;;;;;;5080936;28;21029;-64
2023/05/22 10:45:12;;;;;;;16.10;13.00;;;;;;;;;;5081655;28;20448;-63
2023/05/22 10:47:38;;;;;;;13.47;12.27;;;;;;;;;;5081365;28;20534;-63
2023/05/22 10:50:07;;;;;;;14.57;13.27;;;;;;;;;;5081795;28;20459;-63
2023/05/22 10:52:34;;;;;;;13.93;12.63;;;;;;;;;;5082348;28;20494;-63
2023/05/22 10:55:01;;;;;;;15.70;14.10;;;;;;;;;;5074046;28;20563;-63
2023/05/22 10:57:33;;;;;;;14.10;12.80;;;;;;;;;;5075056;28;20475;-63
2023/05/22 11:00:10;;;;;;;15.57;14.17;;;;;;;;;;5084295;28;20505;-63
2023/05/22 11:02:38;;;;;;;16.20;14.47;;;;;;;;;;5087663;28;20536;-63
2023/05/22 11:05:24;;;;;;;15.43;14.13;;;;;;;;;;5083890;28;20444;-62
2023/05/22 11:07:50;;;;;;;13.43;12.20;;;;;;;;;;5085240;28;20509;-62
2023/05/22 11:10:25;;;;;;;15.27;13.77;;;;;;;;;;5084184;28;20452;-61
2023/05/22 11:13:11;;;;;;;14.93;13.63;;;;;;;;;;5081560;28;20447;-62
2023/05/22 11:15:43;;;;;;;15.00;13.30;;;;;;;;;;5074496;28;20971;-61
2023/05/22 11:18:10;;;;;;;14.73;13.23;;;;;;;;;;5081643;28;20472;-61
2023/05/22 11:20:38;;;;;;;14.70;13.40;;;;;;;;;;5080248;28;20491;-62
2023/05/22 11:23:06;;;;;;;13.50;12.30;;;;;;;;;;5079371;28;20448;-62
2023/05/22 11:25:32;;;;;;;13.97;12.67;;;;;;;;;;5073583;28;20491;-61
2023/05/22 11:28:11;;;;;;;14.23;12.93;;;;;;;;;;5080620;28;20548;-61
2023/05/22 11:30:39;;;;;;;13.43;12.10;;;;;;;;;;5080500;28;20510;-62
2023/05/22 11:33:06;;;;;;;15.20;13.70;;;;;;;;;;5073379;28;20509;-62
2023/05/22 11:35:32;;;;;;;18.60;14.40;;;;;;;;;;5080892;28;20468;-62
2023/05/22 11:37:59;;;;;;;15.67;14.23;;;;;;;;;;5082236;28;20520;-61
2023/05/22 11:40:28;;;;;;;17.00;15.37;;;;;;;;;;5079828;28;20462;-62
2023/05/22 11:42:54;;;;;;;14.93;13.53;;;;;;;;;;5080893;28;20452;-61
2023/05/22 11:45:21;;;;;;;16.70;15.00;;;;;;;;;;5082300;28;20452;-62
2023/05/22 11:47:49;;;;;;;15.13;13.70;;;;;;;;;;5081123;28;20452;-61
2023/05/22 11:50:15;;;;;;;15.17;13.73;;;;;;;;;;5079649;28;20551;-62
2023/05/22 11:52:42;;;;;;;19.73;17.77;;;;;;;;;;5086080;28;20457;-62
2023/05/22 11:55:09;;;;;;;17.07;15.47;;;;;;;;;;5079211;28;20519;-62
2023/05/22 11:57:36;;;;;;;17.03;15.50;;;;;;;;;;5079234;28;20463;-61
2023/05/22 12:00:04;;;;;;;17.10;15.53;;;;;;;;;;5079855;28;20511;-62
2023/05/22 12:02:31;;;;;;;16.83;15.33;;;;;;;;;;5076026;28;20479;-62
2023/05/22 12:04:59;;;;;;;17.47;15.67;;;;;;;;;;5080084;28;20470;-62
2023/05/22 12:07:26;;;;;;;17.47;15.87;;;;;;;;;;5075110;28;20480;-63
2023/05/22 12:09:53;;;;;;;17.90;16.10;;;;;;;;;;5076118;28;20451;-61
2023/05/22 12:12:20;;;;;;;16.53;14.93;;;;;;;;;;5077900;28;20938;-61
2023/05/22 12:14:48;;;;;;;17.37;15.67;;;;;;;;;;5081197;28;20444;-61
2023/05/22 12:17:15;;;;;;;17.43;15.93;;;;;;;;;;5080532;28;20490;-61
2023/05/22 12:19:41;;;;;;;18.70;16.87;;;;;;;;;;5079542;28;20520;-61
2023/05/22 12:22:09;;;;;;;17.30;15.47;;;;;;;;;;5080363;28;20479;-61
2023/05/22 12:24:39;;;;;;;20.10;18.00;;;;;;;;;;5082524;28;20488;-61
2023/05/22 12:27:08;;;;;;;18.57;16.77;;;;;;;;;;5071220;28;20494;-61
2023/05/22 12:29:34;;;;;;;17.90;16.20;;;;;;;;;;5080219;28;20466;-61
2023/05/22 12:32:02;;;;;;;19.10;15.97;;;;;;;;;;5080305;28;20487;-61
2023/05/22 12:34:32;;;;;;;15.23;13.83;;;;;;;;;;5079290;28;20487;-61
2023/05/22 12:36:58;;;;;;;16.80;15.20;;;;;;;;;;5078785;28;20559;-61
2023/05/22 12:39:27;;;;;;;19.03;17.03;;;;;;;;;;5082795;28;20514;-61
2023/05/22 12:41:54;;;;;;;22.90;20.60;;;;;;;;;;5077886;28;20575;-61
2023/05/22 12:44:20;;;;;;;23.07;20.93;;;;;;;;;;5081047;28;20448;-61
2023/05/22 12:46:47;;;;;;;21.70;19.20;;;;;;;;;;5079255;28;20616;-61
2023/05/22 12:49:13;;;;;;;22.77;20.37;;;;;;;;;;5078813;28;20463;-61
2023/05/22 12:51:39;;;;;;;23.60;21.07;;;;;;;;;;5079439;28;20501;-61
2023/05/22 12:54:06;;;;;;;24.63;22.43;;;;;;;;;;5078446;28;20515;-61
2023/05/22 12:56:34;;;;;;;24.20;21.83;;;;;;;;;;5077490;28;20704;-60
2023/05/22 12:59:00;;;;;;;23.03;20.57;;;;;;;;;;5079888;28;21074;-62
2023/05/22 13:01:26;;;;;;;23.03;20.70;;;;;;;;;;5078859;28;20479;-62
2023/05/22 13:03:53;;;;;;;20.47;18.57;;;;;;;;;;5079156;28;20483;-62
2023/05/22 13:06:19;;;;;;;23.30;19.10;;;;;;;;;;5079383;28;20904;-62
2023/05/22 13:08:46;;;;;;;19.47;17.67;;;;;;;;;;5079755;28;20444;-62
2023/05/22 13:11:12;;;;;;;21.67;19.63;;;;;;;;;;5079386;28;20491;-61
2023/05/22 13:13:40;;;;;;;20.60;18.60;;;;;;;;;;5083907;28;20517;-62
2023/05/22 13:16:07;;;;;;;22.57;18.30;;;;;;;;;;5083158;28;21094;-61
2023/05/22 13:18:33;;;;;;;19.87;17.97;;;;;;;;;;5082695;28;20452;-60
2023/05/22 13:20:59;;;;;;;21.47;19.20;;;;;;;;;;5089506;28;20475;-61
2023/05/22 13:23:26;;;;;;;20.73;18.73;;;;;;;;;;5082957;28;20501;-61
2023/05/22 13:25:52;;;;;;;22.07;19.83;;;;;;;;;;5079222;28;20503;-61
2023/05/22 13:28:18;;;;;;;21.97;19.93;;;;;;;;;;5083288;28;20520;-61
2023/05/22 13:30:46;;;;;;;24.03;21.53;;;;;;;;;;5081005;28;20551;-61
2023/05/22 13:33:13;;;;;;;22.57;20.50;;;;;;;;;;5080609;28;20475;-61
2023/05/22 13:35:39;;;;;;;20.73;18.70;;;;;;;;;;5076137;28;20521;-61
2023/05/22 13:38:06;;;;;;;22.50;20.50;;;;;;;;;;5083314;28;20467;-61
2023/05/22 13:40:32;;;;;;;21.57;19.43;;;;;;;;;;5079140;28;20476;-61
2023/05/22 13:42:59;;;;;;;19.57;17.67;;;;;;;;;;5082069;28;20474;-61
2023/05/22 13:45:26;;;;;;;21.50;19.20;;;;;;;;;;5082466;28;21436;-61
2023/05/22 13:47:54;;;;;;;21.23;19.33;;;;;;;;;;5079854;28;20469;-61
2023/05/22 13:50:20;;;;;;;19.83;17.87;;;;;;;;;;5081055;28;20982;-60
2023/05/22 13:52:46;;;;;;;18.97;17.17;;;;;;;;;;5084398;28;20482;-59
2023/05/22 13:55:13;;;;;;;19.73;17.63;;;;;;;;;;5084140;28;20569;-59
2023/05/22 13:57:40;;;;;;;18.57;16.87;;;;;;;;;;5084302;28;20517;-59
2023/05/22 14:00:07;;;;;;;19.80;18.00;;;;;;;;;;5083590;28;20491;-59
2023/05/22 14:02:34;;;;;;;20.90;18.80;;;;;;;;;;5082332;28;20464;-59
2023/05/22 14:05:01;;;;;;;19.70;17.90;;;;;;;;;;5081528;28;20474;-59
2023/05/22 14:07:28;;;;;;;18.30;16.60;;;;;;;;;;5082271;28;20460;-59
2023/05/22 14:09:54;;;;;;;20.17;18.27;;;;;;;;;;5088299;28;20487;-59
2023/05/22 14:12:21;;;;;;;20.37;18.27;;;;;;;;;;5084354;28;20486;-58
2023/05/22 14:14:47;;;;;;;19.03;17.20;;;;;;;;;;5074241;28;20538;-59
2023/05/22 14:17:13;;;;;;;20.17;17.87;;;;;;;;;;5078722;28;20483;-59